sensor_id;sensor_type;location;lat;lon;timestamp;P1;durP1;ratioP1;P2;durP2;ratioP2
24787;SDS011;12883;52.662;5.196;2022-11-15T00:01:41;35.70;;;35.50;;
24787;SDS011;12883;52.662;5.196;2022-11-15T00:04:07;34.90;;;34.70;;
24787;SDS011;12883;52.662;5.196;2022-11-15T00:06:32;32.93;;;32.73;;
24787;SDS011;12883;52.662;5.196;2022-11-15T00:08:58;33.53;;;33.33;;
24787;SDS011;12883;52.662;5.196;2022-11-15T00:11:24;33.93;;;33.73;;
24787;SDS011;12883;52.662;5.196;2022-11-15T00:13:49;33.50;;;33.30;;
24787;SDS011;12883;52.662;5.196;2022-11-15T00:16:15;31.20;;;31.00;;
24787;SDS011;12883;52.662;5.196;2022-11-15T00:18:40;32.47;;;32.27;;
24787;SDS011;12883;52.662;5.196;2022-11-15T00:21:07;31.67;;;31.47;;
24787;SDS011;12883;52.662;5.196;2022-11-15T00:23:34;32.33;;;32.13;;
24787;SDS011;12883;52.662;5.196;2022-11-15T00:26:00;30.67;;;30.47;;
24787;SDS011;12883;52.662;5.196;2022-11-15T00:28:25;30.00;;;29.80;;
24787;SDS011;12883;52.662;5.196;2022-11-15T00:30:51;31.60;;;31.40;;
24787;SDS011;12883;52.662;5.196;2022-11-15T00:33:16;32.83;;;32.63;;
24787;SDS011;12883;52.662;5.196;2022-11-15T00:35:42;32.27;;;32.07;;
24787;SDS011;12883;52.662;5.196;2022-11-15T00:38:07;34.23;;;34.03;;
24787;SDS011;12883;52.662;5.196;2022-11-15T00:40:32;35.03;;;34.83;;
24787;SDS011;12883;52.662;5.196;2022-11-15T00:42:58;34.90;;;34.70;;
24787;SDS011;12883;52.662;5.196;2022-11-15T00:45:24;38.47;;;38.17;;
24787;SDS011;12883;52.662;5.196;2022-11-15T00:47:50;38.27;;;38.07;;
24787;SDS011;12883;52.662;5.196;2022-11-15T00:50:16;36.90;;;36.70;;
24787;SDS011;12883;52.662;5.196;2022-11-15T00:52:41;37.37;;;37.07;;
24787;SDS011;12883;52.662;5.196;2022-11-15T00:55:09;37.83;;;37.63;;
24787;SDS011;12883;52.662;5.196;2022-11-15T00:57:39;40.77;;;40.47;;
24787;SDS011;12883;52.662;5.196;2022-11-15T01:00:04;40.03;;;39.73;;
24787;SDS011;12883;52.662;5.196;2022-11-15T01:02:30;40.07;;;39.77;;
24787;SDS011;12883;52.662;5.196;2022-11-15T01:04:56;38.40;;;38.20;;
24787;SDS011;12883;52.662;5.196;2022-11-15T01:07:21;40.90;;;40.60;;
24787;SDS011;12883;52.662;5.196;2022-11-15T01:09:46;42.33;;;42.03;;
24787;SDS011;12883;52.662;5.196;2022-11-15T01:12:12;40.47;;;40.17;;
24787;SDS011;12883;52.662;5.196;2022-11-15T01:14:37;41.77;;;41.47;;
24787;SDS011;12883;52.662;5.196;2022-11-15T01:17:02;44.03;;;43.70;;
24787;SDS011;12883;52.662;5.196;2022-11-15T01:19:27;41.83;;;41.53;;
24787;SDS011;12883;52.662;5.196;2022-11-15T01:21:53;43.23;;;42.93;;
24787;SDS011;12883;52.662;5.196;2022-11-15T01:24:18;43.10;;;42.80;;
24787;SDS011;12883;52.662;5.196;2022-11-15T01:26:44;45.00;;;44.70;;
24787;SDS011;12883;52.662;5.196;2022-11-15T01:29:09;44.73;;;44.43;;
24787;SDS011;12883;52.662;5.196;2022-11-15T01:31:34;45.87;;;45.47;;
24787;SDS011;12883;52.662;5.196;2022-11-15T01:33:59;44.20;;;43.83;;
24787;SDS011;12883;52.662;5.196;2022-11-15T01:36:25;44.90;;;44.60;;
24787;SDS011;12883;52.662;5.196;2022-11-15T01:38:54;46.80;;;46.40;;
24787;SDS011;12883;52.662;5.196;2022-11-15T01:41:22;43.27;;;42.87;;
24787;SDS011;12883;52.662;5.196;2022-11-15T01:43:51;43.97;;;43.57;;
24787;SDS011;12883;52.662;5.196;2022-11-15T01:46:27;43.00;;;42.70;;
24787;SDS011;12883;52.662;5.196;2022-11-15T01:48:56;42.83;;;42.47;;
24787;SDS011;12883;52.662;5.196;2022-11-15T01:51:25;43.17;;;42.87;;
24787;SDS011;12883;52.662;5.196;2022-11-15T01:53:55;41.27;;;40.97;;
24787;SDS011;12883;52.662;5.196;2022-11-15T01:56:25;43.07;;;42.73;;
24787;SDS011;12883;52.662;5.196;2022-11-15T01:58:55;43.17;;;42.77;;
24787;SDS011;12883;52.662;5.196;2022-11-15T02:01:22;42.27;;;41.97;;
24787;SDS011;12883;52.662;5.196;2022-11-15T02:03:52;42.47;;;42.13;;
24787;SDS011;12883;52.662;5.196;2022-11-15T02:06:22;41.03;;;40.73;;
24787;SDS011;12883;52.662;5.196;2022-11-15T02:08:47;40.30;;;40.00;;
24787;SDS011;12883;52.662;5.196;2022-11-15T02:11:14;40.10;;;39.80;;
24787;SDS011;12883;52.662;5.196;2022-11-15T02:13:40;40.07;;;39.77;;
24787;SDS011;12883;52.662;5.196;2022-11-15T02:16:13;40.20;;;39.90;;
24787;SDS011;12883;52.662;5.196;2022-11-15T02:18:57;42.20;;;41.87;;
24787;SDS011;12883;52.662;5.196;2022-11-15T02:24:01;42.13;;;41.83;;
24787;SDS011;12883;52.662;5.196;2022-11-15T02:26:41;42.10;;;41.80;;
24787;SDS011;12883;52.662;5.196;2022-11-15T02:29:11;42.17;;;41.87;;
24787;SDS011;12883;52.662;5.196;2022-11-15T02:31:56;44.33;;;43.93;;
24787;SDS011;12883;52.662;5.196;2022-11-15T02:37:39;41.90;;;41.50;;
24787;SDS011;12883;52.662;5.196;2022-11-15T02:40:16;45.23;;;44.83;;
24787;SDS011;12883;52.662;5.196;2022-11-15T02:42:44;43.13;;;42.83;;
24787;SDS011;12883;52.662;5.196;2022-11-15T02:45:50;41.33;;;40.93;;
24787;SDS011;12883;52.662;5.196;2022-11-15T02:48:19;42.33;;;41.93;;
24787;SDS011;12883;52.662;5.196;2022-11-15T02:50:47;44.03;;;43.63;;
24787;SDS011;12883;52.662;5.196;2022-11-15T02:53:14;41.77;;;41.43;;
24787;SDS011;12883;52.662;5.196;2022-11-15T02:55:43;47.43;;;47.03;;
24787;SDS011;12883;52.662;5.196;2022-11-15T03:01:01;44.37;;;43.97;;
24787;SDS011;12883;52.662;5.196;2022-11-15T03:06:18;44.67;;;44.27;;
24787;SDS011;12883;52.662;5.196;2022-11-15T03:08:53;42.70;;;42.30;;
24787;SDS011;12883;52.662;5.196;2022-11-15T03:11:41;41.80;;;41.40;;
24787;SDS011;12883;52.662;5.196;2022-11-15T03:14:22;46.93;;;46.53;;
24787;SDS011;12883;52.662;5.196;2022-11-15T03:19:55;49.87;;;49.47;;
24787;SDS011;12883;52.662;5.196;2022-11-15T03:22:24;51.80;;;51.30;;
24787;SDS011;12883;52.662;5.196;2022-11-15T03:24:57;52.70;;;52.20;;
24787;SDS011;12883;52.662;5.196;2022-11-15T03:27:27;54.40;;;53.90;;
24787;SDS011;12883;52.662;5.196;2022-11-15T03:29:59;54.67;;;54.17;;
24787;SDS011;12883;52.662;5.196;2022-11-15T03:32:29;54.87;;;54.37;;
24787;SDS011;12883;52.662;5.196;2022-11-15T03:37:30;57.40;;;56.80;;
24787;SDS011;12883;52.662;5.196;2022-11-15T03:39:58;56.90;;;56.40;;
24787;SDS011;12883;52.662;5.196;2022-11-15T03:42:28;59.40;;;58.80;;
24787;SDS011;12883;52.662;5.196;2022-11-15T03:45:05;60.10;;;59.50;;
24787;SDS011;12883;52.662;5.196;2022-11-15T03:47:39;62.57;;;61.97;;
24787;SDS011;12883;52.662;5.196;2022-11-15T03:50:12;59.77;;;59.17;;
24787;SDS011;12883;52.662;5.196;2022-11-15T03:52:41;59.33;;;58.83;;
24787;SDS011;12883;52.662;5.196;2022-11-15T03:55:08;58.60;;;58.00;;
24787;SDS011;12883;52.662;5.196;2022-11-15T03:57:36;60.00;;;59.40;;
24787;SDS011;12883;52.662;5.196;2022-11-15T04:00:02;58.40;;;57.80;;
24787;SDS011;12883;52.662;5.196;2022-11-15T04:02:29;59.40;;;58.80;;
24787;SDS011;12883;52.662;5.196;2022-11-15T04:04:54;59.70;;;59.13;;
24787;SDS011;12883;52.662;5.196;2022-11-15T04:07:19;59.77;;;59.17;;
24787;SDS011;12883;52.662;5.196;2022-11-15T04:09:45;57.97;;;57.43;;
24787;SDS011;12883;52.662;5.196;2022-11-15T04:12:38;59.57;;;58.97;;
24787;SDS011;12883;52.662;5.196;2022-11-15T04:15:10;59.33;;;58.83;;
24787;SDS011;12883;52.662;5.196;2022-11-15T04:17:41;58.70;;;58.10;;
24787;SDS011;12883;52.662;5.196;2022-11-15T04:22:57;60.00;;;59.50;;
24787;SDS011;12883;52.662;5.196;2022-11-15T04:25:42;59.57;;;59.03;;
24787;SDS011;12883;52.662;5.196;2022-11-15T04:28:09;57.90;;;57.40;;
24787;SDS011;12883;52.662;5.196;2022-11-15T04:30:35;62.50;;;61.90;;
24787;SDS011;12883;52.662;5.196;2022-11-15T04:33:00;58.30;;;57.80;;
24787;SDS011;12883;52.662;5.196;2022-11-15T04:35:26;60.33;;;59.73;;
24787;SDS011;12883;52.662;5.196;2022-11-15T04:37:52;63.13;;;62.53;;
24787;SDS011;12883;52.662;5.196;2022-11-15T04:40:17;60.60;;;60.10;;
24787;SDS011;12883;52.662;5.196;2022-11-15T04:42:43;62.47;;;61.87;;
24787;SDS011;12883;52.662;5.196;2022-11-15T04:45:09;64.97;;;64.37;;
24787;SDS011;12883;52.662;5.196;2022-11-15T04:47:34;62.53;;;61.93;;
24787;SDS011;12883;52.662;5.196;2022-11-15T04:50:00;64.00;;;63.40;;
24787;SDS011;12883;52.662;5.196;2022-11-15T04:52:25;63.87;;;63.23;;
24787;SDS011;12883;52.662;5.196;2022-11-15T04:54:51;67.17;;;66.47;;
24787;SDS011;12883;52.662;5.196;2022-11-15T04:57:17;64.83;;;64.23;;
24787;SDS011;12883;52.662;5.196;2022-11-15T04:59:42;65.90;;;65.20;;
24787;SDS011;12883;52.662;5.196;2022-11-15T05:02:07;63.30;;;62.70;;
24787;SDS011;12883;52.662;5.196;2022-11-15T05:04:33;62.70;;;62.10;;
24787;SDS011;12883;52.662;5.196;2022-11-15T05:06:58;64.77;;;64.17;;
24787;SDS011;12883;52.662;5.196;2022-11-15T05:09:23;62.73;;;62.13;;
24787;SDS011;12883;52.662;5.196;2022-11-15T05:11:49;64.67;;;64.07;;
24787;SDS011;12883;52.662;5.196;2022-11-15T05:14:14;66.77;;;66.13;;
24787;SDS011;12883;52.662;5.196;2022-11-15T05:16:40;64.30;;;63.70;;
24787;SDS011;12883;52.662;5.196;2022-11-15T05:19:05;63.67;;;63.07;;
24787;SDS011;12883;52.662;5.196;2022-11-15T05:21:31;64.70;;;64.10;;
24787;SDS011;12883;52.662;5.196;2022-11-15T05:23:57;61.77;;;61.23;;
24787;SDS011;12883;52.662;5.196;2022-11-15T05:26:23;62.27;;;61.77;;
24787;SDS011;12883;52.662;5.196;2022-11-15T05:28:52;62.57;;;62.03;;
24787;SDS011;12883;52.662;5.196;2022-11-15T05:31:21;62.83;;;62.30;;
24787;SDS011;12883;52.662;5.196;2022-11-15T05:33:48;60.20;;;59.70;;
24787;SDS011;12883;52.662;5.196;2022-11-15T05:36:24;61.27;;;60.77;;
24787;SDS011;12883;52.662;5.196;2022-11-15T05:39:02;61.37;;;60.87;;
24787;SDS011;12883;52.662;5.196;2022-11-15T05:44:05;59.60;;;59.10;;
24787;SDS011;12883;52.662;5.196;2022-11-15T05:46:33;59.57;;;59.07;;
24787;SDS011;12883;52.662;5.196;2022-11-15T05:48:59;60.03;;;59.53;;
24787;SDS011;12883;52.662;5.196;2022-11-15T05:51:25;59.27;;;58.77;;
24787;SDS011;12883;52.662;5.196;2022-11-15T05:53:54;59.37;;;58.97;;
24787;SDS011;12883;52.662;5.196;2022-11-15T05:56:21;58.43;;;57.97;;
24787;SDS011;12883;52.662;5.196;2022-11-15T05:58:46;57.50;;;57.10;;
24787;SDS011;12883;52.662;5.196;2022-11-15T06:01:12;55.10;;;54.70;;
24787;SDS011;12883;52.662;5.196;2022-11-15T06:03:37;53.37;;;52.97;;
24787;SDS011;12883;52.662;5.196;2022-11-15T06:06:03;52.97;;;52.57;;
24787;SDS011;12883;52.662;5.196;2022-11-15T06:08:28;52.53;;;52.13;;
24787;SDS011;12883;52.662;5.196;2022-11-15T06:10:53;51.67;;;51.27;;
24787;SDS011;12883;52.662;5.196;2022-11-15T06:13:19;52.83;;;52.43;;
24787;SDS011;12883;52.662;5.196;2022-11-15T06:15:44;51.57;;;51.17;;
24787;SDS011;12883;52.662;5.196;2022-11-15T06:18:10;51.20;;;50.80;;
24787;SDS011;12883;52.662;5.196;2022-11-15T06:20:35;49.17;;;48.87;;
24787;SDS011;12883;52.662;5.196;2022-11-15T06:23:01;48.40;;;48.10;;
24787;SDS011;12883;52.662;5.196;2022-11-15T06:25:28;46.63;;;46.33;;
24787;SDS011;12883;52.662;5.196;2022-11-15T06:27:55;45.37;;;45.07;;
24787;SDS011;12883;52.662;5.196;2022-11-15T06:30:22;47.97;;;47.67;;
24787;SDS011;12883;52.662;5.196;2022-11-15T06:32:49;45.17;;;44.87;;
24787;SDS011;12883;52.662;5.196;2022-11-15T06:35:15;44.87;;;44.57;;
24787;SDS011;12883;52.662;5.196;2022-11-15T06:37:41;45.60;;;45.30;;
24787;SDS011;12883;52.662;5.196;2022-11-15T06:40:07;46.70;;;46.40;;
24787;SDS011;12883;52.662;5.196;2022-11-15T06:42:33;45.33;;;45.03;;
24787;SDS011;12883;52.662;5.196;2022-11-15T06:44:59;45.27;;;44.97;;
24787;SDS011;12883;52.662;5.196;2022-11-15T06:47:24;44.37;;;44.07;;
24787;SDS011;12883;52.662;5.196;2022-11-15T06:49:50;46.13;;;45.83;;
24787;SDS011;12883;52.662;5.196;2022-11-15T06:52:15;44.77;;;44.47;;
24787;SDS011;12883;52.662;5.196;2022-11-15T06:54:43;42.73;;;42.43;;
24787;SDS011;12883;52.662;5.196;2022-11-15T06:57:09;43.07;;;42.77;;
24787;SDS011;12883;52.662;5.196;2022-11-15T06:59:34;42.90;;;42.60;;
24787;SDS011;12883;52.662;5.196;2022-11-15T07:01:59;41.53;;;41.30;;
24787;SDS011;12883;52.662;5.196;2022-11-15T07:04:25;42.60;;;42.30;;
24787;SDS011;12883;52.662;5.196;2022-11-15T07:06:50;41.33;;;41.03;;
24787;SDS011;12883;52.662;5.196;2022-11-15T07:09:15;42.17;;;41.97;;
24787;SDS011;12883;52.662;5.196;2022-11-15T07:11:41;41.57;;;41.33;;
24787;SDS011;12883;52.662;5.196;2022-11-15T07:14:06;41.20;;;41.00;;
24787;SDS011;12883;52.662;5.196;2022-11-15T07:16:31;41.33;;;41.13;;
24787;SDS011;12883;52.662;5.196;2022-11-15T07:18:57;40.73;;;40.53;;
24787;SDS011;12883;52.662;5.196;2022-11-15T07:21:22;41.60;;;41.30;;
24787;SDS011;12883;52.662;5.196;2022-11-15T07:23:47;40.37;;;40.17;;
24787;SDS011;12883;52.662;5.196;2022-11-15T07:26:13;40.70;;;40.50;;
24787;SDS011;12883;52.662;5.196;2022-11-15T07:28:38;39.73;;;39.53;;
24787;SDS011;12883;52.662;5.196;2022-11-15T07:31:04;41.57;;;41.37;;
24787;SDS011;12883;52.662;5.196;2022-11-15T07:33:30;39.00;;;38.80;;
24787;SDS011;12883;52.662;5.196;2022-11-15T07:35:58;38.87;;;38.67;;
24787;SDS011;12883;52.662;5.196;2022-11-15T07:38:28;38.77;;;38.57;;
24787;SDS011;12883;52.662;5.196;2022-11-15T07:40:57;39.67;;;39.43;;
24787;SDS011;12883;52.662;5.196;2022-11-15T07:43:24;37.77;;;37.57;;
24787;SDS011;12883;52.662;5.196;2022-11-15T07:45:50;39.63;;;39.43;;
24787;SDS011;12883;52.662;5.196;2022-11-15T07:48:16;40.27;;;40.07;;
24787;SDS011;12883;52.662;5.196;2022-11-15T07:50:41;39.27;;;39.07;;
24787;SDS011;12883;52.662;5.196;2022-11-15T07:53:07;39.47;;;39.27;;
24787;SDS011;12883;52.662;5.196;2022-11-15T07:55:34;37.60;;;37.40;;
24787;SDS011;12883;52.662;5.196;2022-11-15T07:58:00;36.70;;;36.50;;
24787;SDS011;12883;52.662;5.196;2022-11-15T08:00:30;38.00;;;37.80;;
24787;SDS011;12883;52.662;5.196;2022-11-15T08:03:05;36.97;;;36.77;;
24787;SDS011;12883;52.662;5.196;2022-11-15T08:05:33;39.07;;;38.87;;
24787;SDS011;12883;52.662;5.196;2022-11-15T08:07:58;35.93;;;35.73;;
24787;SDS011;12883;52.662;5.196;2022-11-15T08:10:24;36.67;;;36.47;;
24787;SDS011;12883;52.662;5.196;2022-11-15T08:12:57;35.60;;;35.40;;
24787;SDS011;12883;52.662;5.196;2022-11-15T08:15:23;35.00;;;34.80;;
24787;SDS011;12883;52.662;5.196;2022-11-15T08:17:53;35.50;;;35.30;;
24787;SDS011;12883;52.662;5.196;2022-11-15T08:20:19;35.03;;;34.83;;
24787;SDS011;12883;52.662;5.196;2022-11-15T08:22:44;34.77;;;34.57;;
24787;SDS011;12883;52.662;5.196;2022-11-15T08:25:10;34.03;;;33.83;;
24787;SDS011;12883;52.662;5.196;2022-11-15T08:27:35;34.17;;;33.97;;
24787;SDS011;12883;52.662;5.196;2022-11-15T08:30:00;34.23;;;34.03;;
24787;SDS011;12883;52.662;5.196;2022-11-15T08:32:27;34.53;;;34.33;;
24787;SDS011;12883;52.662;5.196;2022-11-15T08:34:52;33.43;;;33.23;;
24787;SDS011;12883;52.662;5.196;2022-11-15T08:37:17;32.43;;;32.23;;
24787;SDS011;12883;52.662;5.196;2022-11-15T08:39:43;31.67;;;31.47;;
24787;SDS011;12883;52.662;5.196;2022-11-15T08:42:08;32.17;;;31.97;;
24787;SDS011;12883;52.662;5.196;2022-11-15T08:44:33;32.20;;;32.00;;
24787;SDS011;12883;52.662;5.196;2022-11-15T08:46:59;32.80;;;32.60;;
24787;SDS011;12883;52.662;5.196;2022-11-15T08:49:24;31.60;;;31.40;;
24787;SDS011;12883;52.662;5.196;2022-11-15T08:51:49;30.40;;;30.20;;
24787;SDS011;12883;52.662;5.196;2022-11-15T08:54:15;31.30;;;31.10;;
24787;SDS011;12883;52.662;5.196;2022-11-15T08:56:40;30.20;;;30.00;;
24787;SDS011;12883;52.662;5.196;2022-11-15T08:59:05;31.00;;;30.80;;
24787;SDS011;12883;52.662;5.196;2022-11-15T09:01:31;31.13;;;30.93;;
24787;SDS011;12883;52.662;5.196;2022-11-15T09:03:57;32.47;;;32.30;;
24787;SDS011;12883;52.662;5.196;2022-11-15T09:06:22;31.57;;;31.37;;
24787;SDS011;12883;52.662;5.196;2022-11-15T09:08:48;31.10;;;30.90;;
24787;SDS011;12883;52.662;5.196;2022-11-15T09:11:13;33.67;;;33.47;;
24787;SDS011;12883;52.662;5.196;2022-11-15T09:13:39;35.90;;;35.70;;
24787;SDS011;12883;52.662;5.196;2022-11-15T09:16:05;34.47;;;34.27;;
24787;SDS011;12883;52.662;5.196;2022-11-15T09:18:31;34.27;;;34.07;;
24787;SDS011;12883;52.662;5.196;2022-11-15T09:20:57;33.60;;;33.40;;
24787;SDS011;12883;52.662;5.196;2022-11-15T09:23:23;33.60;;;33.40;;
24787;SDS011;12883;52.662;5.196;2022-11-15T09:25:50;32.57;;;32.37;;
24787;SDS011;12883;52.662;5.196;2022-11-15T09:28:16;31.83;;;31.63;;
24787;SDS011;12883;52.662;5.196;2022-11-15T09:30:41;31.53;;;31.33;;
24787;SDS011;12883;52.662;5.196;2022-11-15T09:33:10;30.13;;;29.93;;
24787;SDS011;12883;52.662;5.196;2022-11-15T09:35:36;29.93;;;29.73;;
24787;SDS011;12883;52.662;5.196;2022-11-15T09:38:02;31.60;;;31.40;;
24787;SDS011;12883;52.662;5.196;2022-11-15T09:40:29;28.93;;;28.80;;
24787;SDS011;12883;52.662;5.196;2022-11-15T09:43:08;27.57;;;27.47;;
24787;SDS011;12883;52.662;5.196;2022-11-15T09:51:25;27.17;;;27.07;;
24787;SDS011;12883;52.662;5.196;2022-11-15T09:56:48;25.23;;;25.13;;
24787;SDS011;12883;52.662;5.196;2022-11-15T10:05:02;23.00;;;22.90;;
24787;SDS011;12883;52.662;5.196;2022-11-15T10:07:33;22.43;;;22.33;;
24787;SDS011;12883;52.662;5.196;2022-11-15T10:12:44;19.50;;;19.40;;
24787;SDS011;12883;52.662;5.196;2022-11-15T10:15:13;20.43;;;20.33;;
24787;SDS011;12883;52.662;5.196;2022-11-15T10:22:47;18.80;;;18.70;;
24787;SDS011;12883;52.662;5.196;2022-11-15T10:27:55;17.47;;;17.37;;
24787;SDS011;12883;52.662;5.196;2022-11-15T10:30:21;17.33;;;17.23;;
24787;SDS011;12883;52.662;5.196;2022-11-15T10:32:48;16.47;;;16.37;;
24787;SDS011;12883;52.662;5.196;2022-11-15T10:35:18;17.17;;;17.07;;
24787;SDS011;12883;52.662;5.196;2022-11-15T10:37:47;16.17;;;16.07;;
24787;SDS011;12883;52.662;5.196;2022-11-15T10:42:42;15.13;;;15.03;;
24787;SDS011;12883;52.662;5.196;2022-11-15T10:47:55;13.50;;;13.50;;
24787;SDS011;12883;52.662;5.196;2022-11-15T10:50:40;13.27;;;13.27;;
24787;SDS011;12883;52.662;5.196;2022-11-15T10:55:49;11.70;;;11.70;;
24787;SDS011;12883;52.662;5.196;2022-11-15T11:03:40;8.00;;;8.00;;
24787;SDS011;12883;52.662;5.196;2022-11-15T11:06:14;8.50;;;8.50;;
24787;SDS011;12883;52.662;5.196;2022-11-15T11:08:58;8.70;;;8.70;;
24787;SDS011;12883;52.662;5.196;2022-11-15T11:11:25;7.30;;;7.30;;
24787;SDS011;12883;52.662;5.196;2022-11-15T11:14:13;6.63;;;6.63;;
24787;SDS011;12883;52.662;5.196;2022-11-15T11:25:18;5.97;;;5.97;;
24787;SDS011;12883;52.662;5.196;2022-11-15T11:28:05;6.10;;;6.10;;
24787;SDS011;12883;52.662;5.196;2022-11-15T11:31:09;5.10;;;5.10;;
24787;SDS011;12883;52.662;5.196;2022-11-15T11:36:45;4.23;;;4.23;;
24787;SDS011;12883;52.662;5.196;2022-11-15T11:39:28;4.83;;;4.83;;
24787;SDS011;12883;52.662;5.196;2022-11-15T11:47:22;5.50;;;5.50;;
24787;SDS011;12883;52.662;5.196;2022-11-15T11:49:57;5.13;;;5.13;;
24787;SDS011;12883;52.662;5.196;2022-11-15T11:52:38;4.60;;;4.60;;
24787;SDS011;12883;52.662;5.196;2022-11-15T11:55:19;4.03;;;4.03;;
24787;SDS011;12883;52.662;5.196;2022-11-15T12:00:23;4.57;;;4.57;;
24787;SDS011;12883;52.662;5.196;2022-11-15T12:14:25;3.50;;;3.50;;
24787;SDS011;12883;52.662;5.196;2022-11-15T12:16:51;3.87;;;3.87;;
24787;SDS011;12883;52.662;5.196;2022-11-15T12:19:17;3.37;;;3.37;;
24787;SDS011;12883;52.662;5.196;2022-11-15T12:24:31;3.67;;;3.67;;
24787;SDS011;12883;52.662;5.196;2022-11-15T12:29:53;3.70;;;3.70;;
24787;SDS011;12883;52.662;5.196;2022-11-15T12:32:28;3.83;;;3.83;;
24787;SDS011;12883;52.662;5.196;2022-11-15T12:34:58;3.67;;;3.67;;
24787;SDS011;12883;52.662;5.196;2022-11-15T12:40:16;3.23;;;3.23;;
24787;SDS011;12883;52.662;5.196;2022-11-15T12:43:10;2.80;;;2.80;;
24787;SDS011;12883;52.662;5.196;2022-11-15T12:52:10;2.80;;;2.80;;
24787;SDS011;12883;52.662;5.196;2022-11-15T13:02:26;3.47;;;3.47;;
24787;SDS011;12883;52.662;5.196;2022-11-15T13:08:00;3.10;;;3.10;;
24787;SDS011;12883;52.662;5.196;2022-11-15T13:12:51;2.90;;;2.90;;
24787;SDS011;12883;52.662;5.196;2022-11-15T13:15:37;2.70;;;2.70;;
24787;SDS011;12883;52.662;5.196;2022-11-15T13:18:31;2.57;;;2.57;;
24787;SDS011;12883;52.662;5.196;2022-11-15T13:21:00;2.50;;;2.50;;
24787;SDS011;12883;52.662;5.196;2022-11-15T13:23:26;2.80;;;2.80;;
24787;SDS011;12883;52.662;5.196;2022-11-15T13:31:21;3.03;;;3.03;;
24787;SDS011;12883;52.662;5.196;2022-11-15T13:33:49;3.20;;;3.20;;
24787;SDS011;12883;52.662;5.196;2022-11-15T13:36:18;3.17;;;3.17;;
24787;SDS011;12883;52.662;5.196;2022-11-15T13:38:53;2.47;;;2.47;;
24787;SDS011;12883;52.662;5.196;2022-11-15T13:41:31;2.60;;;2.60;;
24787;SDS011;12883;52.662;5.196;2022-11-15T13:43:58;2.97;;;2.97;;
24787;SDS011;12883;52.662;5.196;2022-11-15T13:46:34;2.77;;;2.77;;
24787;SDS011;12883;52.662;5.196;2022-11-15T13:49:00;2.60;;;2.60;;
24787;SDS011;12883;52.662;5.196;2022-11-15T13:53:58;3.23;;;3.23;;
24787;SDS011;12883;52.662;5.196;2022-11-15T13:56:31;2.93;;;2.93;;
24787;SDS011;12883;52.662;5.196;2022-11-15T13:58:57;2.90;;;2.90;;
24787;SDS011;12883;52.662;5.196;2022-11-15T14:01:30;3.13;;;3.13;;
24787;SDS011;12883;52.662;5.196;2022-11-15T14:03:57;2.37;;;2.37;;
24787;SDS011;12883;52.662;5.196;2022-11-15T14:06:24;2.53;;;2.53;;
24787;SDS011;12883;52.662;5.196;2022-11-15T14:09:53;2.60;;;2.60;;
24787;SDS011;12883;52.662;5.196;2022-11-15T14:11:58;2.30;;;2.30;;
24787;SDS011;12883;52.662;5.196;2022-11-15T14:14:24;2.17;;;2.17;;
24787;SDS011;12883;52.662;5.196;2022-11-15T14:16:52;2.97;;;2.97;;
24787;SDS011;12883;52.662;5.196;2022-11-15T14:24:40;2.67;;;2.67;;
24787;SDS011;12883;52.662;5.196;2022-11-15T14:29:43;2.07;;;2.07;;
24787;SDS011;12883;52.662;5.196;2022-11-15T14:32:12;2.13;;;2.13;;
24787;SDS011;12883;52.662;5.196;2022-11-15T14:34:43;2.33;;;2.33;;
24787;SDS011;12883;52.662;5.196;2022-11-15T14:37:28;2.03;;;2.03;;
24787;SDS011;12883;52.662;5.196;2022-11-15T14:39:57;2.20;;;2.20;;
24787;SDS011;12883;52.662;5.196;2022-11-15T14:42:23;2.60;;;2.60;;
24787;SDS011;12883;52.662;5.196;2022-11-15T14:44:49;1.90;;;1.90;;
24787;SDS011;12883;52.662;5.196;2022-11-15T14:47:15;2.10;;;2.10;;
24787;SDS011;12883;52.662;5.196;2022-11-15T14:49:40;2.50;;;2.50;;
24787;SDS011;12883;52.662;5.196;2022-11-15T14:52:25;2.20;;;2.20;;
24787;SDS011;12883;52.662;5.196;2022-11-15T14:54:59;2.30;;;2.30;;
24787;SDS011;12883;52.662;5.196;2022-11-15T14:57:26;2.00;;;2.00;;
24787;SDS011;12883;52.662;5.196;2022-11-15T14:59:51;1.87;;;1.87;;
24787;SDS011;12883;52.662;5.196;2022-11-15T15:02:26;1.63;;;1.63;;
24787;SDS011;12883;52.662;5.196;2022-11-15T15:04:52;1.80;;;1.80;;
24787;SDS011;12883;52.662;5.196;2022-11-15T15:07:18;1.63;;;1.63;;
24787;SDS011;12883;52.662;5.196;2022-11-15T15:09:44;1.30;;;1.30;;
24787;SDS011;12883;52.662;5.196;2022-11-15T15:12:14;1.67;;;1.67;;
24787;SDS011;12883;52.662;5.196;2022-11-15T15:14:41;1.50;;;1.50;;
24787;SDS011;12883;52.662;5.196;2022-11-15T15:17:07;1.77;;;1.77;;
24787;SDS011;12883;52.662;5.196;2022-11-15T15:19:32;1.50;;;1.50;;
24787;SDS011;12883;52.662;5.196;2022-11-15T15:21:57;1.30;;;1.30;;
24787;SDS011;12883;52.662;5.196;2022-11-15T15:24:23;1.60;;;1.60;;
24787;SDS011;12883;52.662;5.196;2022-11-15T15:26:48;1.50;;;1.50;;
24787;SDS011;12883;52.662;5.196;2022-11-15T15:29:13;1.20;;;1.20;;
24787;SDS011;12883;52.662;5.196;2022-11-15T15:31:39;1.57;;;1.57;;
24787;SDS011;12883;52.662;5.196;2022-11-15T15:34:04;1.53;;;1.53;;
24787;SDS011;12883;52.662;5.196;2022-11-15T15:36:29;1.80;;;1.80;;
24787;SDS011;12883;52.662;5.196;2022-11-15T15:38:55;1.03;;;1.03;;
24787;SDS011;12883;52.662;5.196;2022-11-15T15:41:20;1.40;;;1.40;;
24787;SDS011;12883;52.662;5.196;2022-11-15T15:43:46;1.43;;;1.43;;
24787;SDS011;12883;52.662;5.196;2022-11-15T15:46:15;1.27;;;1.27;;
24787;SDS011;12883;52.662;5.196;2022-11-15T15:48:42;1.57;;;1.57;;
24787;SDS011;12883;52.662;5.196;2022-11-15T15:51:08;0.97;;;0.97;;
24787;SDS011;12883;52.662;5.196;2022-11-15T15:53:33;1.50;;;1.50;;
24787;SDS011;12883;52.662;5.196;2022-11-15T15:55:59;1.30;;;1.30;;
24787;SDS011;12883;52.662;5.196;2022-11-15T15:58:25;1.50;;;1.50;;
24787;SDS011;12883;52.662;5.196;2022-11-15T16:00:50;1.57;;;1.57;;
24787;SDS011;12883;52.662;5.196;2022-11-15T16:03:16;1.20;;;1.20;;
24787;SDS011;12883;52.662;5.196;2022-11-15T16:05:41;1.30;;;1.30;;
24787;SDS011;12883;52.662;5.196;2022-11-15T16:08:40;1.60;;;1.60;;
24787;SDS011;12883;52.662;5.196;2022-11-15T16:10:59;1.50;;;1.50;;
24787;SDS011;12883;52.662;5.196;2022-11-15T16:13:24;1.37;;;1.37;;
24787;SDS011;12883;52.662;5.196;2022-11-15T16:15:51;1.33;;;1.33;;
24787;SDS011;12883;52.662;5.196;2022-11-15T16:18:18;1.50;;;1.50;;
24787;SDS011;12883;52.662;5.196;2022-11-15T16:20:47;1.57;;;1.57;;
24787;SDS011;12883;52.662;5.196;2022-11-15T16:23:15;1.63;;;1.63;;
24787;SDS011;12883;52.662;5.196;2022-11-15T16:25:47;1.70;;;1.70;;
24787;SDS011;12883;52.662;5.196;2022-11-15T16:28:17;1.73;;;1.73;;
24787;SDS011;12883;52.662;5.196;2022-11-15T16:30:45;1.20;;;1.20;;
24787;SDS011;12883;52.662;5.196;2022-11-15T16:33:11;1.67;;;1.67;;
24787;SDS011;12883;52.662;5.196;2022-11-15T16:35:36;1.43;;;1.43;;
24787;SDS011;12883;52.662;5.196;2022-11-15T16:38:02;1.80;;;1.80;;
24787;SDS011;12883;52.662;5.196;2022-11-15T16:40:28;1.43;;;1.43;;
24787;SDS011;12883;52.662;5.196;2022-11-15T16:42:55;1.63;;;1.63;;
24787;SDS011;12883;52.662;5.196;2022-11-15T16:45:22;1.60;;;1.60;;
24787;SDS011;12883;52.662;5.196;2022-11-15T16:47:48;1.63;;;1.63;;
24787;SDS011;12883;52.662;5.196;2022-11-15T16:50:17;2.17;;;2.17;;
24787;SDS011;12883;52.662;5.196;2022-11-15T16:52:48;1.57;;;1.57;;